This is the latest recevied weather packets stored in our database for station/object SP4MGL-10. If no packets are shown the sender has not sent any weather packets the latest 10 day(s).
| Time | Temp. | Humidity | Pressure | Rain* | Wind** | Luminosity | Snow |
|---|---|---|---|---|---|---|---|
| 1788371502 | 14.44° C | 100% | 1020 hPa | - | - | - | - |
| 1788370602 | 13.89° C | 100% | 1020.1 hPa | - | - | - | - |
| 1788369702 | 15° C | 93% | 1020.3 hPa | - | - | - | - |
| 1788368802 | 17.22° C | 80% | 1020 hPa | - | - | - | - |
| 1788367902 | 17.22° C | 79% | 1019.9 hPa | - | - | - | - |
| 1788367001 | 17.78° C | 76% | 1019.8 hPa | - | - | - | - |
| 1788366101 | 18.33° C | 75% | 1019.7 hPa | - | - | - | - |
| 1788365201 | 18.89° C | 74% | 1019.7 hPa | - | - | - | - |
| 1788364303 | 18.89° C | 73% | 1019.8 hPa | - | - | - | - |
| 1788364130 | 18.89° C | 72% | 1019.9 hPa | - | - | - | - |
| 1788363555 | 18.33° C | 72% | 1019.9 hPa | - | - | - | - |
| 1788362654 | 18.89° C | 71% | 1019.9 hPa | - | - | - | - |
| 1788361754 | 20° C | 64% | 1020.1 hPa | - | - | - | - |
| 1788360854 | 23.33° C | 52% | 1020 hPa | - | - | - | - |
| 1788359954 | 22.22° C | 56% | 1020.2 hPa | - | - | - | - |
| 1788359054 | 21.11° C | 57% | 1020.2 hPa | - | - | - | - |
| 1788358154 | 20.56° C | 64% | 1020.1 hPa | - | - | - | - |
| 1788357254 | 18.89° C | 68% | 1020.1 hPa | - | - | - | - |
| 1788356354 | 20° C | 66% | 1020.3 hPa | - | - | - | - |
| 1788355454 | 18.89° C | 71% | 1020.2 hPa | - | - | - | - |
| 1788354554 | 19.44° C | 67% | 1020.1 hPa | - | - | - | - |
| 1788353652 | 18.89° C | 66% | 1020.2 hPa | - | - | - | - |
| 1788352752 | 20° C | 63% | 1020.1 hPa | - | - | - | - |
| 1788351852 | 18.89° C | 69% | 1020.2 hPa | - | - | - | - |
| 1788350952 | 19.44° C | 67% | 1020.2 hPa | - | - | - | - |
* Rain since midnight (hover to see other rain measurements)
** Current wind speed in m/s (hover to see current wind gust speed)